createdAt,value
2022-11-22T04:30:09.305Z,10.80
2022-11-22T04:45:13.823Z,11.00
2022-11-22T05:00:19.292Z,11.00
2022-11-22T05:15:23.737Z,11.10
2022-11-22T05:30:28.255Z,10.90
2022-11-22T05:45:32.816Z,10.90
2022-11-22T06:00:37.335Z,10.60
2022-11-22T06:15:41.713Z,10.50
2022-11-22T06:30:46.103Z,10.90
2022-11-22T06:45:50.510Z,10.80
2022-11-22T07:01:00.199Z,10.70
2022-11-22T07:16:06.948Z,10.70
2022-11-22T07:31:14.160Z,10.60
2022-11-22T07:46:23.786Z,10.70
2022-11-22T08:01:28.234Z,10.10
2022-11-22T08:16:32.791Z,10.20
2022-11-22T08:31:37.393Z,10.70
2022-11-22T08:46:41.817Z,10.70
2022-11-22T09:01:46.192Z,10.90
2022-11-22T09:16:50.715Z,11.00
2022-11-22T09:31:56.027Z,11.20
2022-11-22T09:47:08.028Z,11.50
2022-11-22T10:02:19.647Z,11.60
2022-11-22T10:17:36.122Z,12.00
2022-11-22T10:32:48.107Z,12.40
2022-11-22T10:48:02.859Z,12.60
2022-11-22T11:03:16.634Z,12.80
2022-11-22T11:18:26.888Z,12.80
2022-11-22T11:33:32.970Z,12.80
2022-11-22T11:48:41.092Z,12.80
2022-11-22T12:03:52.814Z,13.00
2022-11-22T12:19:05.591Z,13.00
2022-11-22T12:34:16.180Z,13.10
2022-11-22T12:49:29.963Z,12.90
2022-11-22T13:04:44.834Z,13.20
2022-11-22T13:19:52.929Z,13.40
2022-11-22T13:35:06.082Z,13.40
2022-11-22T13:50:49.117Z,13.30
2022-11-22T14:05:56.473Z,13.50
2022-11-22T14:21:06.318Z,13.60
2022-11-22T14:36:18.099Z,14.10
2022-11-22T14:51:32.131Z,13.90
2022-11-22T15:09:10.455Z,13.80
2022-11-22T16:08:52.391Z,13.60
2022-11-22T16:24:18.690Z,13.50
2022-11-22T16:39:23.896Z,13.60
2022-11-22T16:54:28.503Z,13.60
2022-11-22T17:09:34.499Z,13.40
2022-11-22T17:24:39.142Z,13.40
2022-11-22T17:39:43.670Z,13.50
2022-11-22T17:54:48.240Z,13.40
2022-11-22T18:09:52.970Z,13.40
2022-11-22T18:24:57.619Z,13.40
2022-11-22T18:40:02.156Z,13.50
2022-11-22T18:55:07.241Z,13.20
2022-11-22T19:10:12.421Z,13.10
2022-11-22T19:25:17.111Z,12.90
2022-11-22T19:40:21.616Z,13.00
2022-11-22T19:55:26.158Z,13.20
2022-11-22T20:10:31.254Z,13.00
2022-11-22T20:25:35.780Z,13.00
2022-11-22T20:40:40.248Z,12.80
2022-11-22T20:55:44.982Z,12.70
2022-11-22T21:10:49.980Z,13.00
